sensor_id;sensor_type;location;lat;lon;timestamp;temperature;humidity
36552;DHT22;22559;54.176;12.102;2023-02-28T00:00:03;2.90;99.90
36552;DHT22;22559;54.176;12.102;2023-02-28T00:02:42;2.90;99.90
36552;DHT22;22559;54.176;12.102;2023-02-28T00:05:09;2.80;99.90
36552;DHT22;22559;54.176;12.102;2023-02-28T00:07:36;2.90;99.90
36552;DHT22;22559;54.176;12.102;2023-02-28T00:10:03;2.90;99.90
36552;DHT22;22559;54.176;12.102;2023-02-28T00:12:29;3.00;99.90
36552;DHT22;22559;54.176;12.102;2023-02-28T00:14:54;2.90;99.90
36552;DHT22;22559;54.176;12.102;2023-02-28T00:17:20;2.90;99.90
36552;DHT22;22559;54.176;12.102;2023-02-28T00:19:48;2.90;99.90
36552;DHT22;22559;54.176;12.102;2023-02-28T00:22:15;2.90;99.90
36552;DHT22;22559;54.176;12.102;2023-02-28T00:24:41;3.00;99.90
36552;DHT22;22559;54.176;12.102;2023-02-28T00:27:07;3.00;99.90
36552;DHT22;22559;54.176;12.102;2023-02-28T00:29:32;3.00;99.90
36552;DHT22;22559;54.176;12.102;2023-02-28T00:31:58;3.10;99.90
36552;DHT22;22559;54.176;12.102;2023-02-28T00:34:23;3.00;99.90
36552;DHT22;22559;54.176;12.102;2023-02-28T00:36:49;3.00;99.90
36552;DHT22;22559;54.176;12.102;2023-02-28T00:39:15;3.00;99.90
36552;DHT22;22559;54.176;12.102;2023-02-28T00:41:41;2.90;99.90
36552;DHT22;22559;54.176;12.102;2023-02-28T00:44:07;2.80;99.90
36552;DHT22;22559;54.176;12.102;2023-02-28T00:46:33;2.80;99.90
36552;DHT22;22559;54.176;12.102;2023-02-28T00:48:58;2.80;99.90
36552;DHT22;22559;54.176;12.102;2023-02-28T00:51:24;2.70;99.90
36552;DHT22;22559;54.176;12.102;2023-02-28T00:53:49;2.60;99.90
36552;DHT22;22559;54.176;12.102;2023-02-28T00:56:15;2.50;99.90
36552;DHT22;22559;54.176;12.102;2023-02-28T00:58:41;2.30;99.90
36552;DHT22;22559;54.176;12.102;2023-02-28T01:01:07;2.00;99.90
36552;DHT22;22559;54.176;12.102;2023-02-28T01:03:33;1.80;99.90
36552;DHT22;22559;54.176;12.102;2023-02-28T01:05:58;1.80;99.90
36552;DHT22;22559;54.176;12.102;2023-02-28T01:08:24;2.00;99.90
36552;DHT22;22559;54.176;12.102;2023-02-28T01:10:51;2.00;99.90
36552;DHT22;22559;54.176;12.102;2023-02-28T01:13:18;2.00;99.90
36552;DHT22;22559;54.176;12.102;2023-02-28T01:15:50;2.00;99.90
36552;DHT22;22559;54.176;12.102;2023-02-28T01:18:16;1.90;99.90
36552;DHT22;22559;54.176;12.102;2023-02-28T01:20:42;1.90;99.90
36552;DHT22;22559;54.176;12.102;2023-02-28T01:23:08;1.90;99.90
36552;DHT22;22559;54.176;12.102;2023-02-28T01:25:35;1.80;99.90
36552;DHT22;22559;54.176;12.102;2023-02-28T01:28:01;1.80;99.90
36552;DHT22;22559;54.176;12.102;2023-02-28T01:30:26;1.80;99.90
36552;DHT22;22559;54.176;12.102;2023-02-28T01:32:52;1.70;99.90
36552;DHT22;22559;54.176;12.102;2023-02-28T01:35:19;1.70;99.90
36552;DHT22;22559;54.176;12.102;2023-02-28T01:37:44;1.60;99.90
36552;DHT22;22559;54.176;12.102;2023-02-28T01:40:11;1.50;99.90
36552;DHT22;22559;54.176;12.102;2023-02-28T01:42:37;1.50;99.90
36552;DHT22;22559;54.176;12.102;2023-02-28T01:45:28;1.40;99.90
36552;DHT22;22559;54.176;12.102;2023-02-28T01:48:02;1.40;99.90
36552;DHT22;22559;54.176;12.102;2023-02-28T01:50:33;1.40;99.90
36552;DHT22;22559;54.176;12.102;2023-02-28T01:53:03;1.30;99.90
36552;DHT22;22559;54.176;12.102;2023-02-28T01:55:30;1.30;99.90
36552;DHT22;22559;54.176;12.102;2023-02-28T01:58:00;1.30;99.90
36552;DHT22;22559;54.176;12.102;2023-02-28T02:00:29;1.20;99.90
36552;DHT22;22559;54.176;12.102;2023-02-28T02:03:01;1.10;99.90
36552;DHT22;22559;54.176;12.102;2023-02-28T02:05:30;1.10;99.90
36552;DHT22;22559;54.176;12.102;2023-02-28T02:08:08;1.10;99.90
36552;DHT22;22559;54.176;12.102;2023-02-28T02:10:44;1.10;99.90
36552;DHT22;22559;54.176;12.102;2023-02-28T02:22:02;1.00;99.90
36552;DHT22;22559;54.176;12.102;2023-02-28T02:41:49;0.80;99.90
36552;DHT22;22559;54.176;12.102;2023-02-28T02:46:49;0.70;99.90
36552;DHT22;22559;54.176;12.102;2023-02-28T02:49:26;0.70;99.90
36552;DHT22;22559;54.176;12.102;2023-02-28T02:51:53;0.70;99.90
36552;DHT22;22559;54.176;12.102;2023-02-28T02:54:35;0.70;99.90
36552;DHT22;22559;54.176;12.102;2023-02-28T02:57:06;0.80;99.90
36552;DHT22;22559;54.176;12.102;2023-02-28T02:59:35;0.80;99.90
36552;DHT22;22559;54.176;12.102;2023-02-28T03:02:03;0.80;99.90
36552;DHT22;22559;54.176;12.102;2023-02-28T03:04:41;0.80;99.90
36552;DHT22;22559;54.176;12.102;2023-02-28T03:07:08;0.80;99.90
36552;DHT22;22559;54.176;12.102;2023-02-28T03:09:34;0.80;99.90
36552;DHT22;22559;54.176;12.102;2023-02-28T03:12:02;0.70;99.90
36552;DHT22;22559;54.176;12.102;2023-02-28T03:18:04;0.60;99.90
36552;DHT22;22559;54.176;12.102;2023-02-28T03:20:45;0.60;99.90
36552;DHT22;22559;54.176;12.102;2023-02-28T03:23:25;0.50;99.90
36552;DHT22;22559;54.176;12.102;2023-02-28T03:26:02;0.50;99.90
36552;DHT22;22559;54.176;12.102;2023-02-28T03:31:30;0.50;99.90
36552;DHT22;22559;54.176;12.102;2023-02-28T03:34:06;0.50;99.90
36552;DHT22;22559;54.176;12.102;2023-02-28T03:36:39;0.50;99.90
36552;DHT22;22559;54.176;12.102;2023-02-28T03:39:16;0.50;99.90
36552;DHT22;22559;54.176;12.102;2023-02-28T03:41:47;0.50;99.90
36552;DHT22;22559;54.176;12.102;2023-02-28T03:46:57;0.50;99.90
36552;DHT22;22559;54.176;12.102;2023-02-28T03:49:28;0.60;99.90
36552;DHT22;22559;54.176;12.102;2023-02-28T03:51:58;0.60;99.90
36552;DHT22;22559;54.176;12.102;2023-02-28T03:54:33;0.60;99.90
36552;DHT22;22559;54.176;12.102;2023-02-28T03:57:18;0.60;99.90
36552;DHT22;22559;54.176;12.102;2023-02-28T03:59:49;0.60;99.90
36552;DHT22;22559;54.176;12.102;2023-02-28T04:02:18;0.60;99.90
36552;DHT22;22559;54.176;12.102;2023-02-28T04:04:44;0.60;99.90
36552;DHT22;22559;54.176;12.102;2023-02-28T04:07:14;0.50;99.90
36552;DHT22;22559;54.176;12.102;2023-02-28T04:09:39;0.50;99.90
36552;DHT22;22559;54.176;12.102;2023-02-28T04:12:05;0.40;99.90
36552;DHT22;22559;54.176;12.102;2023-02-28T04:14:31;0.40;99.90
36552;DHT22;22559;54.176;12.102;2023-02-28T04:16:57;0.30;99.90
36552;DHT22;22559;54.176;12.102;2023-02-28T04:19:22;0.20;99.90
36552;DHT22;22559;54.176;12.102;2023-02-28T04:21:50;0.10;99.90
36552;DHT22;22559;54.176;12.102;2023-02-28T04:24:21;0.00;99.90
36552;DHT22;22559;54.176;12.102;2023-02-28T04:26:49;0.00;99.90
36552;DHT22;22559;54.176;12.102;2023-02-28T04:29:23;0.00;99.90
36552;DHT22;22559;54.176;12.102;2023-02-28T04:31:50;0.00;99.90
36552;DHT22;22559;54.176;12.102;2023-02-28T04:34:16;0.10;99.90
36552;DHT22;22559;54.176;12.102;2023-02-28T04:36:42;0.10;99.90
36552;DHT22;22559;54.176;12.102;2023-02-28T04:39:08;-0.10;99.90
36552;DHT22;22559;54.176;12.102;2023-02-28T04:41:35;-0.30;99.90
36552;DHT22;22559;54.176;12.102;2023-02-28T04:44:01;-0.40;99.90
36552;DHT22;22559;54.176;12.102;2023-02-28T04:46:26;-0.50;99.90
36552;DHT22;22559;54.176;12.102;2023-02-28T04:48:52;-0.50;99.90
36552;DHT22;22559;54.176;12.102;2023-02-28T04:51:19;-0.50;99.90
36552;DHT22;22559;54.176;12.102;2023-02-28T04:53:46;-0.30;99.90
36552;DHT22;22559;54.176;12.102;2023-02-28T04:56:14;-0.20;99.90
36552;DHT22;22559;54.176;12.102;2023-02-28T04:58:40;-0.20;99.90
36552;DHT22;22559;54.176;12.102;2023-02-28T05:01:16;-0.40;99.90
36552;DHT22;22559;54.176;12.102;2023-02-28T05:03:42;-0.50;99.90
36552;DHT22;22559;54.176;12.102;2023-02-28T05:06:09;-0.40;99.90
36552;DHT22;22559;54.176;12.102;2023-02-28T05:08:35;-0.40;99.90
36552;DHT22;22559;54.176;12.102;2023-02-28T05:11:01;-0.50;99.90
36552;DHT22;22559;54.176;12.102;2023-02-28T05:13:27;-0.40;99.90
36552;DHT22;22559;54.176;12.102;2023-02-28T05:15:53;-0.50;99.90
36552;DHT22;22559;54.176;12.102;2023-02-28T05:18:19;-0.50;99.90
36552;DHT22;22559;54.176;12.102;2023-02-28T05:20:45;-0.60;99.90
36552;DHT22;22559;54.176;12.102;2023-02-28T05:23:14;-0.60;99.90
36552;DHT22;22559;54.176;12.102;2023-02-28T05:25:41;-0.40;99.90
36552;DHT22;22559;54.176;12.102;2023-02-28T05:28:07;-0.30;99.90
36552;DHT22;22559;54.176;12.102;2023-02-28T05:30:33;-0.20;99.90
36552;DHT22;22559;54.176;12.102;2023-02-28T05:32:59;-0.10;99.90
36552;DHT22;22559;54.176;12.102;2023-02-28T05:35:24;-0.10;99.90
36552;DHT22;22559;54.176;12.102;2023-02-28T05:37:50;0.00;99.90
36552;DHT22;22559;54.176;12.102;2023-02-28T05:40:16;0.00;99.90
36552;DHT22;22559;54.176;12.102;2023-02-28T05:42:42;-0.10;99.90
36552;DHT22;22559;54.176;12.102;2023-02-28T05:45:09;-0.20;99.90
36552;DHT22;22559;54.176;12.102;2023-02-28T05:47:35;-0.20;99.90
36552;DHT22;22559;54.176;12.102;2023-02-28T05:50:01;-0.20;99.90
36552;DHT22;22559;54.176;12.102;2023-02-28T05:52:28;-0.20;99.90
36552;DHT22;22559;54.176;12.102;2023-02-28T05:54:55;-0.20;99.90
36552;DHT22;22559;54.176;12.102;2023-02-28T05:57:21;-0.10;99.90
36552;DHT22;22559;54.176;12.102;2023-02-28T05:59:47;-0.10;99.90
36552;DHT22;22559;54.176;12.102;2023-02-28T06:02:15;-0.20;99.90
36552;DHT22;22559;54.176;12.102;2023-02-28T06:04:42;-0.10;99.90
36552;DHT22;22559;54.176;12.102;2023-02-28T06:07:08;-0.10;99.90
36552;DHT22;22559;54.176;12.102;2023-02-28T06:09:34;-0.20;99.90
36552;DHT22;22559;54.176;12.102;2023-02-28T06:12:01;-0.10;99.90
36552;DHT22;22559;54.176;12.102;2023-02-28T06:14:29;-0.10;99.90
36552;DHT22;22559;54.176;12.102;2023-02-28T06:16:57;-0.10;99.90
36552;DHT22;22559;54.176;12.102;2023-02-28T06:19:23;-0.20;99.90
36552;DHT22;22559;54.176;12.102;2023-02-28T06:21:51;-0.20;99.90
36552;DHT22;22559;54.176;12.102;2023-02-28T06:24:22;-0.20;99.90
36552;DHT22;22559;54.176;12.102;2023-02-28T06:26:48;-0.20;99.90
36552;DHT22;22559;54.176;12.102;2023-02-28T06:29:14;-0.20;99.90
36552;DHT22;22559;54.176;12.102;2023-02-28T06:31:42;-0.10;99.90
36552;DHT22;22559;54.176;12.102;2023-02-28T06:34:09;0.10;99.90
36552;DHT22;22559;54.176;12.102;2023-02-28T06:36:38;0.20;99.90
36552;DHT22;22559;54.176;12.102;2023-02-28T06:39:03;0.20;99.90
36552;DHT22;22559;54.176;12.102;2023-02-28T06:41:29;0.30;99.90
36552;DHT22;22559;54.176;12.102;2023-02-28T06:43:55;0.30;99.90
36552;DHT22;22559;54.176;12.102;2023-02-28T06:46:21;0.30;99.90
36552;DHT22;22559;54.176;12.102;2023-02-28T06:48:47;0.40;99.90
36552;DHT22;22559;54.176;12.102;2023-02-28T06:51:20;0.40;99.90
36552;DHT22;22559;54.176;12.102;2023-02-28T06:53:47;0.50;99.90
36552;DHT22;22559;54.176;12.102;2023-02-28T06:56:15;0.70;99.90
36552;DHT22;22559;54.176;12.102;2023-02-28T06:58:41;1.00;99.90
36552;DHT22;22559;54.176;12.102;2023-02-28T07:01:07;1.20;99.90
36552;DHT22;22559;54.176;12.102;2023-02-28T07:03:35;1.40;99.90
36552;DHT22;22559;54.176;12.102;2023-02-28T07:06:01;1.30;99.90
36552;DHT22;22559;54.176;12.102;2023-02-28T07:08:28;1.10;99.90
36552;DHT22;22559;54.176;12.102;2023-02-28T07:10:54;0.90;99.90
36552;DHT22;22559;54.176;12.102;2023-02-28T07:13:21;0.90;99.90
36552;DHT22;22559;54.176;12.102;2023-02-28T07:15:55;1.00;99.90
36552;DHT22;22559;54.176;12.102;2023-02-28T07:18:21;1.40;99.90
36552;DHT22;22559;54.176;12.102;2023-02-28T07:20:46;1.70;99.90
36552;DHT22;22559;54.176;12.102;2023-02-28T07:23:12;1.80;99.90
36552;DHT22;22559;54.176;12.102;2023-02-28T07:25:37;2.00;99.90
36552;DHT22;22559;54.176;12.102;2023-02-28T07:28:03;2.20;99.90
36552;DHT22;22559;54.176;12.102;2023-02-28T07:30:29;2.30;99.90
36552;DHT22;22559;54.176;12.102;2023-02-28T07:32:54;2.40;99.90
36552;DHT22;22559;54.176;12.102;2023-02-28T07:35:22;2.50;99.90
36552;DHT22;22559;54.176;12.102;2023-02-28T07:37:47;2.60;99.90
36552;DHT22;22559;54.176;12.102;2023-02-28T07:40:13;2.90;99.90
36552;DHT22;22559;54.176;12.102;2023-02-28T07:42:40;3.20;99.90
36552;DHT22;22559;54.176;12.102;2023-02-28T07:45:07;3.40;99.90
36552;DHT22;22559;54.176;12.102;2023-02-28T07:47:33;3.60;99.90
36552;DHT22;22559;54.176;12.102;2023-02-28T07:49:59;4.00;99.90
36552;DHT22;22559;54.176;12.102;2023-02-28T07:52:25;4.00;99.90
36552;DHT22;22559;54.176;12.102;2023-02-28T07:54:51;4.00;99.90
36552;DHT22;22559;54.176;12.102;2023-02-28T07:57:16;3.90;99.90
36552;DHT22;22559;54.176;12.102;2023-02-28T07:59:42;3.70;99.90
36552;DHT22;22559;54.176;12.102;2023-02-28T08:02:18;3.70;99.90
36552;DHT22;22559;54.176;12.102;2023-02-28T08:04:44;3.70;99.90
36552;DHT22;22559;54.176;12.102;2023-02-28T08:07:12;3.70;99.90
36552;DHT22;22559;54.176;12.102;2023-02-28T08:09:42;3.70;99.90
36552;DHT22;22559;54.176;12.102;2023-02-28T08:12:08;3.70;99.90
36552;DHT22;22559;54.176;12.102;2023-02-28T08:14:34;4.00;99.90
36552;DHT22;22559;54.176;12.102;2023-02-28T08:17:00;4.30;99.90
36552;DHT22;22559;54.176;12.102;2023-02-28T08:19:26;4.40;99.90
36552;DHT22;22559;54.176;12.102;2023-02-28T08:21:52;4.60;99.90
36552;DHT22;22559;54.176;12.102;2023-02-28T08:24:18;4.80;99.90
36552;DHT22;22559;54.176;12.102;2023-02-28T08:26:43;5.10;99.90
36552;DHT22;22559;54.176;12.102;2023-02-28T08:29:09;5.50;99.90
36552;DHT22;22559;54.176;12.102;2023-02-28T08:31:35;5.90;99.90
36552;DHT22;22559;54.176;12.102;2023-02-28T08:34:05;6.20;99.90
36552;DHT22;22559;54.176;12.102;2023-02-28T08:36:31;6.70;99.90
36552;DHT22;22559;54.176;12.102;2023-02-28T08:38:57;7.20;99.90
36552;DHT22;22559;54.176;12.102;2023-02-28T08:41:23;7.80;99.90
36552;DHT22;22559;54.176;12.102;2023-02-28T08:43:49;8.50;99.90
36552;DHT22;22559;54.176;12.102;2023-02-28T08:46:17;9.20;99.90
36552;DHT22;22559;54.176;12.102;2023-02-28T08:48:43;9.60;99.90
36552;DHT22;22559;54.176;12.102;2023-02-28T08:51:12;9.90;99.90
36552;DHT22;22559;54.176;12.102;2023-02-28T08:53:39;10.50;99.90
36552;DHT22;22559;54.176;12.102;2023-02-28T08:56:11;11.00;99.90
36552;DHT22;22559;54.176;12.102;2023-02-28T08:58:37;11.20;99.90
36552;DHT22;22559;54.176;12.102;2023-02-28T09:01:20;11.40;99.90
36552;DHT22;22559;54.176;12.102;2023-02-28T09:03:48;11.40;99.90
36552;DHT22;22559;54.176;12.102;2023-02-28T09:06:15;11.80;99.90
36552;DHT22;22559;54.176;12.102;2023-02-28T09:08:41;12.10;99.90
36552;DHT22;22559;54.176;12.102;2023-02-28T09:11:08;12.00;99.90
36552;DHT22;22559;54.176;12.102;2023-02-28T09:13:34;11.80;99.90
36552;DHT22;22559;54.176;12.102;2023-02-28T09:16:01;11.50;99.90
36552;DHT22;22559;54.176;12.102;2023-02-28T09:18:28;11.30;99.90
36552;DHT22;22559;54.176;12.102;2023-02-28T09:20:53;11.60;99.90
36552;DHT22;22559;54.176;12.102;2023-02-28T09:23:19;11.70;99.90
36552;DHT22;22559;54.176;12.102;2023-02-28T09:25:51;11.90;99.90
36552;DHT22;22559;54.176;12.102;2023-02-28T09:28:17;12.30;99.90
36552;DHT22;22559;54.176;12.102;2023-02-28T09:30:47;12.30;99.90
36552;DHT22;22559;54.176;12.102;2023-02-28T09:33:14;12.50;99.90
36552;DHT22;22559;54.176;12.102;2023-02-28T09:35:40;12.90;99.90
36552;DHT22;22559;54.176;12.102;2023-02-28T09:38:06;12.90;99.90
36552;DHT22;22559;54.176;12.102;2023-02-28T09:40:37;12.70;99.90
36552;DHT22;22559;54.176;12.102;2023-02-28T09:43:05;12.60;99.90
36552;DHT22;22559;54.176;12.102;2023-02-28T09:45:34;12.90;99.90
36552;DHT22;22559;54.176;12.102;2023-02-28T09:48:14;12.60;99.90
36552;DHT22;22559;54.176;12.102;2023-02-28T09:50:54;13.10;99.90
36552;DHT22;22559;54.176;12.102;2023-02-28T09:53:27;13.20;99.90
36552;DHT22;22559;54.176;12.102;2023-02-28T09:56:18;13.70;99.90
36552;DHT22;22559;54.176;12.102;2023-02-28T09:58:55;13.40;99.90
36552;DHT22;22559;54.176;12.102;2023-02-28T10:01:31;13.70;99.90
36552;DHT22;22559;54.176;12.102;2023-02-28T10:06:44;14.30;99.90
36552;DHT22;22559;54.176;12.102;2023-02-28T10:09:19;14.30;99.90
36552;DHT22;22559;54.176;12.102;2023-02-28T10:11:48;14.40;99.90
36552;DHT22;22559;54.176;12.102;2023-02-28T10:14:22;14.40;99.90
36552;DHT22;22559;54.176;12.102;2023-02-28T10:16:49;14.10;99.90
36552;DHT22;22559;54.176;12.102;2023-02-28T10:22:11;14.00;99.90
36552;DHT22;22559;54.176;12.102;2023-02-28T10:24:40;14.00;99.90
36552;DHT22;22559;54.176;12.102;2023-02-28T10:29:44;13.90;99.90
36552;DHT22;22559;54.176;12.102;2023-02-28T10:32:15;13.60;99.90
36552;DHT22;22559;54.176;12.102;2023-02-28T10:34:42;13.50;99.90
36552;DHT22;22559;54.176;12.102;2023-02-28T10:37:10;13.80;99.90
36552;DHT22;22559;54.176;12.102;2023-02-28T10:39:44;14.00;99.90
36552;DHT22;22559;54.176;12.102;2023-02-28T10:42:30;14.00;99.90
36552;DHT22;22559;54.176;12.102;2023-02-28T10:45:12;14.00;99.90
36552;DHT22;22559;54.176;12.102;2023-02-28T10:48:03;13.70;99.90
36552;DHT22;22559;54.176;12.102;2023-02-28T11:01:40;13.30;99.90
36552;DHT22;22559;54.176;12.102;2023-02-28T11:07:22;13.20;99.90
36552;DHT22;22559;54.176;12.102;2023-02-28T11:09:52;12.70;99.90
36552;DHT22;22559;54.176;12.102;2023-02-28T11:12:38;12.80;99.90
36552;DHT22;22559;54.176;12.102;2023-02-28T11:15:23;13.30;99.90
36552;DHT22;22559;54.176;12.102;2023-02-28T11:18:00;13.70;99.90
36552;DHT22;22559;54.176;12.102;2023-02-28T11:20:30;13.40;99.90
36552;DHT22;22559;54.176;12.102;2023-02-28T11:22:57;13.40;99.90
36552;DHT22;22559;54.176;12.102;2023-02-28T11:25:30;13.30;99.90
36552;DHT22;22559;54.176;12.102;2023-02-28T11:27:59;13.90;99.90
36552;DHT22;22559;54.176;12.102;2023-02-28T11:30:39;14.10;99.90
36552;DHT22;22559;54.176;12.102;2023-02-28T11:33:31;14.10;99.90
36552;DHT22;22559;54.176;12.102;2023-02-28T11:36:13;13.70;99.90
36552;DHT22;22559;54.176;12.102;2023-02-28T11:38:40;14.00;99.90
36552;DHT22;22559;54.176;12.102;2023-02-28T11:46:38;14.30;99.90
36552;DHT22;22559;54.176;12.102;2023-02-28T11:52:13;13.70;99.90
36552;DHT22;22559;54.176;12.102;2023-02-28T11:57:36;13.70;99.90
36552;DHT22;22559;54.176;12.102;2023-02-28T12:03:28;14.10;99.90
36552;DHT22;22559;54.176;12.102;2023-02-28T12:06:09;14.30;99.90
36552;DHT22;22559;54.176;12.102;2023-02-28T12:27:34;14.30;99.90
36552;DHT22;22559;54.176;12.102;2023-02-28T12:30:08;14.30;99.90
36552;DHT22;22559;54.176;12.102;2023-02-28T12:32:47;14.20;99.90
36552;DHT22;22559;54.176;12.102;2023-02-28T12:35:22;14.30;99.90
36552;DHT22;22559;54.176;12.102;2023-02-28T12:38:19;14.40;99.90
36552;DHT22;22559;54.176;12.102;2023-02-28T12:43:20;14.30;99.90
36552;DHT22;22559;54.176;12.102;2023-02-28T12:45:56;14.00;99.90
36552;DHT22;22559;54.176;12.102;2023-02-28T12:48:31;14.40;99.90
36552;DHT22;22559;54.176;12.102;2023-02-28T12:50:57;14.50;99.90
36552;DHT22;22559;54.176;12.102;2023-02-28T12:56:33;14.20;99.90
36552;DHT22;22559;54.176;12.102;2023-02-28T13:01:46;14.50;99.90
36552;DHT22;22559;54.176;12.102;2023-02-28T13:09:57;14.10;99.90
36552;DHT22;22559;54.176;12.102;2023-02-28T13:12:25;14.10;99.90
36552;DHT22;22559;54.176;12.102;2023-02-28T13:17:56;14.60;99.90
36552;DHT22;22559;54.176;12.102;2023-02-28T13:22:52;14.70;99.90
36552;DHT22;22559;54.176;12.102;2023-02-28T13:27:49;14.70;99.90
36552;DHT22;22559;54.176;12.102;2023-02-28T13:33:36;14.80;99.90
36552;DHT22;22559;54.176;12.102;2023-02-28T13:38:44;15.00;99.90
36552;DHT22;22559;54.176;12.102;2023-02-28T13:44:15;14.80;99.90
36552;DHT22;22559;54.176;12.102;2023-02-28T13:51:50;15.20;99.90
36552;DHT22;22559;54.176;12.102;2023-02-28T13:59:43;14.90;99.90
36552;DHT22;22559;54.176;12.102;2023-02-28T14:05:20;15.00;99.90
36552;DHT22;22559;54.176;12.102;2023-02-28T14:07:53;14.60;99.90
36552;DHT22;22559;54.176;12.102;2023-02-28T14:10:31;14.40;99.90
36552;DHT22;22559;54.176;12.102;2023-02-28T14:15:49;15.00;99.90
36552;DHT22;22559;54.176;12.102;2023-02-28T14:20:44;14.70;99.90
36552;DHT22;22559;54.176;12.102;2023-02-28T14:26:43;14.40;99.90
36552;DHT22;22559;54.176;12.102;2023-02-28T14:32:10;14.20;99.90
36552;DHT22;22559;54.176;12.102;2023-02-28T14:35:16;13.80;99.90
36552;DHT22;22559;54.176;12.102;2023-02-28T14:37:38;13.50;99.90
36552;DHT22;22559;54.176;12.102;2023-02-28T14:40:14;13.80;99.90
36552;DHT22;22559;54.176;12.102;2023-02-28T14:43:00;13.70;99.90
36552;DHT22;22559;54.176;12.102;2023-02-28T14:45:29;13.60;99.90
36552;DHT22;22559;54.176;12.102;2023-02-28T14:47:57;13.70;99.90
36552;DHT22;22559;54.176;12.102;2023-02-28T14:50:35;13.90;99.90
36552;DHT22;22559;54.176;12.102;2023-02-28T14:53:01;14.20;99.90
36552;DHT22;22559;54.176;12.102;2023-02-28T14:55:32;13.90;99.90
36552;DHT22;22559;54.176;12.102;2023-02-28T14:58:04;13.90;99.90
36552;DHT22;22559;54.176;12.102;2023-02-28T15:00:36;13.60;99.90
36552;DHT22;22559;54.176;12.102;2023-02-28T15:05:59;13.50;99.90
36552;DHT22;22559;54.176;12.102;2023-02-28T15:08:26;13.50;99.90
36552;DHT22;22559;54.176;12.102;2023-02-28T15:10:58;13.50;99.90
36552;DHT22;22559;54.176;12.102;2023-02-28T15:13:41;13.50;99.90
36552;DHT22;22559;54.176;12.102;2023-02-28T15:16:16;13.40;99.90
36552;DHT22;22559;54.176;12.102;2023-02-28T15:18:49;13.10;99.90
36552;DHT22;22559;54.176;12.102;2023-02-28T15:23:46;13.10;99.90
36552;DHT22;22559;54.176;12.102;2023-02-28T15:26:16;13.00;99.90
36552;DHT22;22559;54.176;12.102;2023-02-28T15:28:43;13.30;99.90
36552;DHT22;22559;54.176;12.102;2023-02-28T15:31:26;13.10;99.90
36552;DHT22;22559;54.176;12.102;2023-02-28T15:33:54;12.80;99.90
36552;DHT22;22559;54.176;12.102;2023-02-28T15:36:24;12.70;99.90
36552;DHT22;22559;54.176;12.102;2023-02-28T15:38:51;12.50;99.90
36552;DHT22;22559;54.176;12.102;2023-02-28T15:41:35;12.40;99.90
36552;DHT22;22559;54.176;12.102;2023-02-28T15:47:07;12.20;99.90
36552;DHT22;22559;54.176;12.102;2023-02-28T15:49:47;12.20;99.90
36552;DHT22;22559;54.176;12.102;2023-02-28T15:52:20;12.00;99.90
36552;DHT22;22559;54.176;12.102;2023-02-28T15:54:47;11.60;99.90
36552;DHT22;22559;54.176;12.102;2023-02-28T15:57:25;11.70;99.90
36552;DHT22;22559;54.176;12.102;2023-02-28T15:59:57;11.60;99.90
36552;DHT22;22559;54.176;12.102;2023-02-28T16:02:35;11.40;99.90
36552;DHT22;22559;54.176;12.102;2023-02-28T16:07:35;11.30;99.90
36552;DHT22;22559;54.176;12.102;2023-02-28T16:10:02;11.00;99.90
36552;DHT22;22559;54.176;12.102;2023-02-28T16:12:30;10.90;99.90
36552;DHT22;22559;54.176;12.102;2023-02-28T16:14:59;10.80;99.90
36552;DHT22;22559;54.176;12.102;2023-02-28T16:17:30;10.80;99.90
36552;DHT22;22559;54.176;12.102;2023-02-28T16:19:56;10.50;99.90
36552;DHT22;22559;54.176;12.102;2023-02-28T16:22:22;10.30;99.90
36552;DHT22;22559;54.176;12.102;2023-02-28T16:24:48;10.10;99.90
36552;DHT22;22559;54.176;12.102;2023-02-28T16:29:42;9.60;99.90
36552;DHT22;22559;54.176;12.102;2023-02-28T16:32:12;9.40;99.90
36552;DHT22;22559;54.176;12.102;2023-02-28T16:34:39;9.20;99.90
36552;DHT22;22559;54.176;12.102;2023-02-28T16:37:09;8.90;99.90
36552;DHT22;22559;54.176;12.102;2023-02-28T16:39:35;8.40;99.90
36552;DHT22;22559;54.176;12.102;2023-02-28T16:42:01;8.30;99.90
36552;DHT22;22559;54.176;12.102;2023-02-28T16:44:35;8.10;99.90
36552;DHT22;22559;54.176;12.102;2023-02-28T16:47:03;7.80;99.90
36552;DHT22;22559;54.176;12.102;2023-02-28T16:49:29;7.50;99.90
36552;DHT22;22559;54.176;12.102;2023-02-28T16:51:54;7.30;99.90
36552;DHT22;22559;54.176;12.102;2023-02-28T16:54:20;7.20;99.90
36552;DHT22;22559;54.176;12.102;2023-02-28T16:56:47;7.00;99.90
36552;DHT22;22559;54.176;12.102;2023-02-28T16:59:17;6.90;99.90
36552;DHT22;22559;54.176;12.102;2023-02-28T17:01:43;6.80;99.90
36552;DHT22;22559;54.176;12.102;2023-02-28T17:04:11;6.60;99.90
36552;DHT22;22559;54.176;12.102;2023-02-28T17:06:37;6.40;99.90
36552;DHT22;22559;54.176;12.102;2023-02-28T17:09:03;6.40;99.90
36552;DHT22;22559;54.176;12.102;2023-02-28T17:11:29;6.20;99.90
36552;DHT22;22559;54.176;12.102;2023-02-28T17:13:55;6.20;99.90
36552;DHT22;22559;54.176;12.102;2023-02-28T17:16:30;6.20;99.90
36552;DHT22;22559;54.176;12.102;2023-02-28T17:18:59;6.40;99.90
36552;DHT22;22559;54.176;12.102;2023-02-28T17:21:24;6.40;99.90
36552;DHT22;22559;54.176;12.102;2023-02-28T17:23:50;6.20;99.90
36552;DHT22;22559;54.176;12.102;2023-02-28T17:26:18;6.00;99.90
36552;DHT22;22559;54.176;12.102;2023-02-28T17:28:48;5.90;99.90
36552;DHT22;22559;54.176;12.102;2023-02-28T17:31:14;6.00;99.90
36552;DHT22;22559;54.176;12.102;2023-02-28T17:33:40;6.00;99.90
36552;DHT22;22559;54.176;12.102;2023-02-28T17:36:06;6.00;99.90
36552;DHT22;22559;54.176;12.102;2023-02-28T17:38:32;6.00;99.90
36552;DHT22;22559;54.176;12.102;2023-02-28T17:40:58;6.10;99.90
36552;DHT22;22559;54.176;12.102;2023-02-28T17:43:26;5.80;99.90
36552;DHT22;22559;54.176;12.102;2023-02-28T17:45:53;5.60;99.90
36552;DHT22;22559;54.176;12.102;2023-02-28T17:48:19;5.40;99.90
36552;DHT22;22559;54.176;12.102;2023-02-28T17:50:45;5.30;99.90
36552;DHT22;22559;54.176;12.102;2023-02-28T17:53:11;5.20;99.90
36552;DHT22;22559;54.176;12.102;2023-02-28T17:55:36;5.10;99.90
36552;DHT22;22559;54.176;12.102;2023-02-28T17:58:03;5.00;99.90
36552;DHT22;22559;54.176;12.102;2023-02-28T18:00:29;5.00;99.90
36552;DHT22;22559;54.176;12.102;2023-02-28T18:02:55;4.90;99.90
36552;DHT22;22559;54.176;12.102;2023-02-28T18:05:20;4.90;99.90
36552;DHT22;22559;54.176;12.102;2023-02-28T18:07:46;4.90;99.90
36552;DHT22;22559;54.176;12.102;2023-02-28T18:12:48;4.90;99.90
36552;DHT22;22559;54.176;12.102;2023-02-28T18:15:15;4.90;99.90
36552;DHT22;22559;54.176;12.102;2023-02-28T18:17:41;4.80;99.90
36552;DHT22;22559;54.176;12.102;2023-02-28T18:20:08;4.80;99.90
36552;DHT22;22559;54.176;12.102;2023-02-28T18:22:35;4.80;99.90